Flight Track Log - Related Links

Times and Time Zones

All times are in EDT time to prevent confusion due to time zone crossing. See the KAP927 flight status page for this flight to view local times or setup timezone preferences in your user account.


Time Position Orientation Groundspeed Altitude Reporting Facility
EDT Latitude Longitude Course Direction KTS MPH feet Rate Location/Type
Thu 07:57:35 AM 41.8039 -73.8519 21° North 144 166 4,400  Level Boston Center
Thu 07:59:00 AM 41.8183 -73.7836 74° East  Level Estimated
Thu 08:06:00 AM 41.8887 -73.4456 74° East  Level Estimated
Thu 08:07:00 AM 41.8986 -73.3972 74° East  Level Estimated
Thu 08:08:00 AM 41.9086 -73.3489 75° East  Level Estimated
Thu 08:09:00 AM 41.9185 -73.3005 75° East  Level Estimated
Thu 08:10:00 AM 41.9284 -73.2521 75° East  Level Estimated
Thu 08:11:00 AM 41.9383 -73.2037 75° East  Level Estimated
Thu 08:12:00 AM 41.9482 -73.1552 75° East  Level Estimated
Thu 08:13:00 AM 41.9580 -73.1068 75° East  Level Estimated
Thu 08:14:00 AM 41.9679 -73.0583 75° East  Level Estimated
Thu 08:15:00 AM 41.9777 -73.0099 75° East  Level Estimated
Thu 08:16:00 AM 41.9875 -72.9614 75° East  Level Estimated
Thu 08:17:00 AM 41.9972 -72.9129 75° East  Level Estimated
Thu 08:18:00 AM 42.0070 -72.8644 75° East  Level Estimated
Thu 08:19:00 AM 42.0167 -72.8158 75° East  Level Estimated
Thu 08:20:00 AM 42.0264 -72.7673 75° East  Level Estimated
Thu 08:21:00 AM 42.0361 -72.7187 75° East  Level Estimated
Thu 08:22:00 AM 42.0458 -72.6701 75° East  Level Estimated
Thu 08:23:00 AM 42.0555 -72.6216 75° East  Level Estimated
Thu 08:24:00 AM 42.0651 -72.5730 75° East  Level Estimated
Thu 08:25:00 AM 42.0747 -72.5243 75° East  Level Estimated
Thu 08:26:00 AM 42.0843 -72.4757 75° East  Level Estimated
Thu 08:27:00 AM 42.0938 -72.4270 75° East  Level Estimated
Thu 08:28:00 AM 42.1034 -72.3784 75° East  Level Estimated
Thu 08:29:00 AM 42.1129 -72.3297 75° East  Level Estimated
Thu 08:30:00 AM 42.1224 -72.2810 75° East  Level Estimated
Thu 08:31:00 AM 42.1319 -72.2323 75° East  Level Estimated
Thu 08:32:00 AM 42.1414 -72.1836 75° East  Level Estimated
Thu 08:33:00 AM 42.1508 -72.1348 75° East  Level Estimated
Thu 08:34:00 AM 42.1603 -72.0861 75° East  Level Estimated
Thu 08:35:00 AM 42.1697 -72.0373 75° East  Level Estimated
Thu 08:36:00 AM 42.1790 -71.9885 75° East  Level Estimated
Thu 08:37:00 AM 42.1884 -71.9398 75° East  Level Estimated
Thu 08:38:00 AM 42.1977 -71.8910 75° East  Level Estimated
Thu 08:39:00 AM 42.2071 -71.8421 76° East  Level Estimated
Thu 08:40:00 AM 42.2164 -71.7933 76° East  Level Estimated
Thu 08:41:00 AM 42.2256 -71.7444 76° East  Level Estimated
Thu 08:42:00 AM 42.2349 -71.6956 76° East  Level Estimated
Thu 08:43:00 AM 42.2441 -71.6467 76° East  Level Estimated
Thu 08:44:00 AM 42.2533 -71.5978 76° East  Level Estimated
Thu 08:45:00 AM 42.2626 -71.5489 76° East  Level Estimated
Thu 08:45:17 AM 42.7050 -73.3808 76° East 146 168 5,500  Level Boston Center
Thu 08:46:00 AM 42.2717 -71.5000 76° East  Level Estimated
Thu 08:46:11 AM 42.6969 -73.3300 102° East 148 170 6,000  Level Boston Center
Thu 08:47:00 AM 42.2809 -71.4510 76° East  Level Estimated
Thu 08:47:12 AM 42.6892 -73.2733 101° East 150 173 6,600  Level Boston Center
Thu 08:48:00 AM 42.2900 -71.4021 76° East  Level Estimated
Thu 08:48:18 AM 42.6811 -73.2111 100° East 149 171 7,100  Level Boston Center
Thu 08:49:00 AM 42.2991 -71.3531 76° East  Level Estimated
Thu 08:49:18 AM 42.6753 -73.1603 99° East 154 177 7,500  Level Boston Center
Thu 08:50:00 AM 42.3082 -71.3041 76° East  Level Estimated
Thu 08:50:18 AM 42.6633 -73.0894 103° East 161 185 7,500  Level Boston Center
Thu 08:51:18 AM 42.6572 -73.0272 98° East 176 203 7,500  Level Boston Center
Thu 08:52:18 AM 42.6494 -72.9594 99° East 181 208 7,500  Level Boston Center
Thu 08:53:18 AM 42.6392 -72.8861 101° East 181 208 7,500  Level Boston Center
Thu 08:54:18 AM 42.6289 -72.8183 102° East 181 208 7,500  Level Boston Center
Thu 08:55:18 AM 42.6208 -72.7561 100° East 181 208 7,500  Level Boston Center
Thu 08:56:18 AM 42.6128 -72.6911 100° East 176 203 7,500  Level Boston Center
Thu 08:57:18 AM 42.6025 -72.6292 103° East 176 203 7,500  Level Boston Center
Thu 08:58:18 AM 42.5942 -72.5697 101° East 176 203 7,500  Level Boston Center
Thu 08:59:18 AM 42.5858 -72.5050 100° East 170 196 7,500  Level Boston Center
Thu 09:00:18 AM 42.5756 -72.4428 103° East 165 190 7,500  Level Boston Center
Thu 09:01:18 AM 42.5672 -72.3808 100° East 165 190 7,500  Level Boston Center
Thu 09:02:18 AM 42.5586 -72.3161 100° East 165 190 7,500  Level Boston Center
Thu 09:03:18 AM 42.5483 -72.2514 102° East 165 190 7,500  Level Boston Center
Thu 09:04:30 AM 42.5378 -72.1836 102° East 165 190 7,500  Level Boston Center
Thu 09:05:30 AM 42.5292 -72.1133 99° East 165 190 7,500  Level Boston Center
Thu 09:06:30 AM 42.5206 -72.0569 102° East 165 190 7,500  Level Boston Center
Thu 09:07:30 AM 42.5100 -71.9894 102° East 165 190 7,500  Level Boston Center
Thu 09:08:30 AM 42.5036 -71.9333 99° East 165 190 7,500  Level Boston Center
Thu 09:09:30 AM 42.4969 -71.8656 98° East 165 190 7,500  Level Boston Center
Thu 09:10:30 AM 42.4967 -71.8067 90° East 165 190 7,500 -150 Level Boston Center
Thu 09:11:30 AM 42.4942 -71.7361 93° East 160 184 7,200 -350 Descending Boston Center
Thu 09:12:30 AM 42.4917 -71.6742 93° East 172 198 6,800 -435 Descending Boston Center
Thu 09:13:34 AM 42.4833 -71.5833 97° East 191 220 6,300 -435 Descending KA90
Thu 09:14:34 AM 42.4833 -71.5167 90° East 189 217 5,900 -450 Descending KA90
Thu 09:15:34 AM 42.4833 -71.4500 90° East 189 217 5,400 -200 Descending KA90
Thu 09:16:34 AM 42.4833 -71.3833 90° East 177 204 5,500 -50 Climbing KA90
Thu 09:17:34 AM 42.4833 -71.3167 90° East 172 198 5,300 -389 Descending KA90
Thu 09:18:22 AM 42.4833 -71.2500 90° East 185 213 4,800 -381 Descending KA90
Thu 09:19:40 AM 42.4500 -71.1833 124° Southeast 173 199 4,500 -200 Descending KA90
Thu 09:20:22 AM 42.4333 -71.1500 124° Southeast 168 193 4,400 -611 Descending KA90
Thu 09:21:28 AM 42.3833 -71.1500 180° South 177 204 3,400 -1,050 Descending KA90
Thu 09:22:22 AM 42.3500 -71.1167 144° Southeast 164 189 2,300 -1,105 Descending KA90
Thu 09:23:22 AM 42.3333 -71.0667 114° Southeast 152 175 1,300 -909 Descending KA90
Thu 09:24:34 AM 42.3500 -71.0167 66° East 125 144 300 -833 Descending KA90
Thu 09:26:00 AM 42.3630 -71.0064 31° Northeast  Level Estimated
Thu 09:33:00 AM 42.3630 -71.0064 270° West  Level Estimated

Login

Don't have an account? Register now (free) for customized features, flight alerts, and more!